Time;durP1;ratioP1;P1;durP2;ratioP2;P2;SDS_P1;SDS_P2;PMS_P1;PMS_P2;Temp;Humidity;BMP_temperature;BMP_pressure;BME280_temperature;BME280_humidity;BME280_pressure;Samples;Min_cycle;Max_cycle;Signal;HPM_P1;HPM_P2
2022/01/12 00:00:14;;;;;;;265.90;62.38;;;;;;;;;;5056947;28;20455;-80
2022/01/12 00:02:40;;;;;;;310.13;63.65;;;;;;;;;;5056558;28;20433;-80
2022/01/12 00:05:06;;;;;;;338.70;67.88;;;;;;;;;;5054613;28;20079;-81
2022/01/12 00:07:32;;;;;;;332.92;66.63;;;;;;;;;;5053440;28;20082;-76
2022/01/12 00:09:58;;;;;;;373.98;70.72;;;;;;;;;;5074646;28;20045;-84
2022/01/12 00:12:26;;;;;;;398.02;69.57;;;;;;;;;;5077389;28;20078;-83
2022/01/12 00:14:52;;;;;;;377.27;69.10;;;;;;;;;;5066539;28;20048;-84
2022/01/12 00:17:18;;;;;;;325.40;64.28;;;;;;;;;;5064731;28;20069;-83
2022/01/12 00:19:44;;;;;;;379.58;69.60;;;;;;;;;;5084765;28;20379;-84
2022/01/12 00:22:10;;;;;;;404.02;71.18;;;;;;;;;;5083996;28;20037;-83
2022/01/12 00:35:57;;;;;;;460.90;101.22;;;;;;;;;;5026205;28;20540;-85
2022/01/12 00:38:25;;;;;;;414.60;67.07;;;;;;;;;;5018833;28;20124;-84
2022/01/12 00:40:52;;;;;;;394.90;61.25;;;;;;;;;;5054483;28;20052;-84
2022/01/12 00:43:19;;;;;;;443.55;64.22;;;;;;;;;;5083220;28;20037;-86
2022/01/12 00:45:46;;;;;;;430.73;72.72;;;;;;;;;;5084461;28;20048;-84
2022/01/12 00:48:13;;;;;;;516.45;71.60;;;;;;;;;;5078285;28;20048;-83
2022/01/12 00:50:39;;;;;;;518.22;74.75;;;;;;;;;;5081626;28;20407;-84
2022/01/12 00:53:06;;;;;;;516.30;74.53;;;;;;;;;;5063944;28;20044;-84
2022/01/12 00:55:33;;;;;;;553.97;71.82;;;;;;;;;;5068076;28;20051;-85
2022/01/12 00:57:59;;;;;;;540.08;72.78;;;;;;;;;;5068467;28;20044;-84
2022/01/12 01:00:26;;;;;;;576.13;73.40;;;;;;;;;;5064640;28;20047;-82
2022/01/12 01:02:53;;;;;;;549.70;102.40;;;;;;;;;;5061740;28;20088;-87
2022/01/12 01:05:21;;;;;;;557.60;68.03;;;;;;;;;;5080272;28;20509;-85
2022/01/12 01:07:48;;;;;;;442.63;98.80;;;;;;;;;;5081152;28;20402;-85
2022/01/12 01:10:22;;;;;;;510.23;68.47;;;;;;;;;;5082552;28;20052;-84
2022/01/12 01:12:48;;;;;;;606.03;75.32;;;;;;;;;;5080963;28;20127;-85
2022/01/12 01:15:18;;;;;;;528.95;71.28;;;;;;;;;;5059644;28;20075;-84
2022/01/12 01:25:45;;;;;;;613.38;79.63;;;;;;;;;;5078368;28;20388;-85
2022/01/12 01:28:12;;;;;;;635.28;78.93;;;;;;;;;;5079984;28;20122;-85
2022/01/12 01:30:40;;;;;;;730.70;84.32;;;;;;;;;;5075753;28;20047;-87
2022/01/12 01:33:08;;;;;;;768.05;84.38;;;;;;;;;;5080890;28;20472;-87
2022/01/12 01:35:35;;;;;;;650.67;76.78;;;;;;;;;;5067013;28;20072;-86
2022/01/12 01:38:02;;;;;;;723.53;79.80;;;;;;;;;;5080173;28;20044;-86
2022/01/12 01:40:42;;;;;;;597.20;74.22;;;;;;;;;;5060693;28;20072;-86
2022/01/12 01:43:18;;;;;;;773.28;79.85;;;;;;;;;;5109939;27;20106;-86
2022/01/12 01:53:59;;;;;;;688.40;76.82;;;;;;;;;;5083220;28;20040;-85
2022/01/12 01:56:26;;;;;;;732.90;83.75;;;;;;;;;;5060039;28;20412;-84
2022/01/12 01:58:52;;;;;;;615.42;75.50;;;;;;;;;;5082708;28;20749;-87
2022/01/12 02:01:18;;;;;;;598.38;71.57;;;;;;;;;;5078610;28;20047;-86
2022/01/12 02:03:44;;;;;;;676.45;77.80;;;;;;;;;;5078395;28;20177;-86
2022/01/12 02:06:11;;;;;;;658.25;75.93;;;;;;;;;;5066161;28;20105;-84
2022/01/12 02:08:37;;;;;;;631.47;74.78;;;;;;;;;;5065716;28;20467;-86
2022/01/12 02:11:04;;;;;;;543.33;67.25;;;;;;;;;;5086418;28;20052;-86
2022/01/12 02:13:30;;;;;;;583.13;68.55;;;;;;;;;;5080701;28;20044;-86
2022/01/12 02:15:57;;;;;;;585.00;68.75;;;;;;;;;;5083345;28;20036;-86
2022/01/12 02:39:43;;;;;;;440.13;59.88;;;;;;;;;;5107612;28;20043;-86
2022/01/12 02:39:59;;;;;;;376.60;54.00;;;;;;;;;;5076824;28;20037;-87
2022/01/12 02:42:27;;;;;;;330.98;52.08;;;;;;;;;;5077448;28;20048;-87
2022/01/12 02:53:51;;;;;;;322.95;51.45;;;;;;;;;;5118247;28;20052;-86
2022/01/12 02:55:52;;;;;;;307.70;49.85;;;;;;;;;;5080705;28;20040;-84
2022/01/12 02:58:18;;;;;;;363.40;53.72;;;;;;;;;;5094946;28;20601;-85
2022/01/12 03:03:33;;;;;;;277.60;46.97;;;;;;;;;;5090308;28;20071;-86
2022/01/12 03:06:05;;;;;;;242.23;44.85;;;;;;;;;;5089145;28;20056;-86
2022/01/12 03:08:40;;;;;;;282.92;48.40;;;;;;;;;;5073693;28;20032;-85
2022/01/12 03:11:07;;;;;;;306.65;48.80;;;;;;;;;;5089990;28;20032;-86
2022/01/12 03:13:33;;;;;;;328.20;48.75;;;;;;;;;;5085010;28;20040;-87
2022/01/12 03:16:00;;;;;;;390.60;52.15;;;;;;;;;;5071635;28;20451;-87
2022/01/12 03:18:26;;;;;;;212.60;44.60;;;;;;;;;;5070397;28;20043;-85
2022/01/12 03:20:53;;;;;;;317.02;49.50;;;;;;;;;;5058634;28;20036;-85
2022/01/12 03:23:19;;;;;;;427.80;53.42;;;;;;;;;;5072520;28;20047;-83
2022/01/12 03:25:45;;;;;;;243.30;43.28;;;;;;;;;;5057370;28;20093;-84
2022/01/12 03:28:11;;;;;;;185.30;39.97;;;;;;;;;;5088187;28;20044;-83
2022/01/12 03:30:47;;;;;;;206.90;42.92;;;;;;;;;;5069991;28;20082;-85
2022/01/12 03:33:32;;;;;;;234.75;41.63;;;;;;;;;;5085686;28;20049;-83
2022/01/12 03:36:23;;;;;;;280.75;42.38;;;;;;;;;;5069742;28;20072;-84
2022/01/12 03:38:47;;;;;;;232.70;38.28;;;;;;;;;;5080652;28;20044;-84
2022/01/12 03:41:13;;;;;;;277.05;40.13;;;;;;;;;;5093221;28;20422;-83
2022/01/12 03:43:39;;;;;;;181.23;35.53;;;;;;;;;;5087014;28;20352;-85
2022/01/12 03:46:06;;;;;;;193.20;38.10;;;;;;;;;;5084795;28;20048;-85
2022/01/12 03:48:32;;;;;;;199.32;37.05;;;;;;;;;;5091311;28;20050;-84
2022/01/12 03:50:58;;;;;;;214.63;35.45;;;;;;;;;;5090238;28;20040;-87
2022/01/12 03:53:24;;;;;;;249.65;39.58;;;;;;;;;;5071973;28;20036;-82
2022/01/12 03:55:50;;;;;;;163.70;34.80;;;;;;;;;;5087842;28;20040;-82
2022/01/12 03:58:17;;;;;;;647.75;50.17;;;;;;;;;;5065319;28;20104;-83
2022/01/12 04:00:43;;;;;;;795.55;56.85;;;;;;;;;;5071834;28;20039;-83
2022/01/12 04:03:09;;;;;;;430.45;38.50;;;;;;;;;;5070056;28;20040;-83
2022/01/12 04:08:19;;;;;;;518.50;45.97;;;;;;;;;;5087522;28;20055;-87
2022/01/12 04:10:45;;;;;;;443.90;39.00;;;;;;;;;;5088800;28;20052;-82
2022/01/12 04:13:13;;;;;;;689.95;47.95;;;;;;;;;;5069635;28;20083;-83
2022/01/12 04:15:39;;;;;;;290.60;35.00;;;;;;;;;;5071479;28;20097;-84
2022/01/12 04:18:05;;;;;;;196.05;32.05;;;;;;;;;;5058290;28;20047;-84
2022/01/12 04:20:31;;;;;;;372.48;37.20;;;;;;;;;;5072345;28;20042;-84
2022/01/12 04:25:41;;;;;;;429.00;41.60;;;;;;;;;;5110050;27;20048;-84
2022/01/12 04:28:08;;;;;;;449.33;36.42;;;;;;;;;;5086250;28;20050;-83
2022/01/12 04:30:34;;;;;;;429.05;35.42;;;;;;;;;;5056758;28;20037;-83
2022/01/12 04:33:00;;;;;;;581.58;39.72;;;;;;;;;;5086275;28;20067;-84
2022/01/12 04:35:31;;;;;;;521.53;40.65;;;;;;;;;;5091805;28;20084;-83
2022/01/12 04:37:57;;;;;;;439.40;36.28;;;;;;;;;;5096824;28;20059;-83
2022/01/12 04:40:23;;;;;;;297.25;29.58;;;;;;;;;;5060750;28;20033;-82
2022/01/12 04:42:50;;;;;;;352.38;29.48;;;;;;;;;;5095856;28;20063;-82
2022/01/12 04:45:31;;;;;;;410.10;32.53;;;;;;;;;;5060536;28;20489;-83
2022/01/12 04:48:01;;;;;;;616.20;41.67;;;;;;;;;;5085562;28;20429;-84
2022/01/12 04:50:30;;;;;;;480.17;32.25;;;;;;;;;;5066218;28;20047;-82
2022/01/12 04:52:56;;;;;;;485.65;34.17;;;;;;;;;;5076599;28;20051;-82
2022/01/12 04:55:22;;;;;;;191.25;24.27;;;;;;;;;;5066089;28;20065;-81
2022/01/12 04:57:48;;;;;;;354.38;30.20;;;;;;;;;;5080000;28;20113;-82
2022/01/12 05:00:16;;;;;;;169.70;20.77;;;;;;;;;;5095978;28;20032;-82
2022/01/12 05:08:34;;;;;;;234.07;22.92;;;;;;;;;;5106969;28;20126;-82
2022/01/12 05:13:45;;;;;;;271.73;24.67;;;;;;;;;;5082146;28;20396;-85
2022/01/12 05:16:12;;;;;;;131.07;21.92;;;;;;;;;;5079100;28;20526;-82
2022/01/12 05:18:38;;;;;;;85.32;16.02;;;;;;;;;;5086329;28;20055;-81
2022/01/12 05:21:05;;;;;;;41.67;15.95;;;;;;;;;;5052885;28;20072;-84
2022/01/12 05:23:31;;;;;;;137.57;19.95;;;;;;;;;;5076087;28;20044;-82
2022/01/12 05:25:58;;;;;;;158.80;21.60;;;;;;;;;;5075880;28;20048;-82
2022/01/12 05:28:25;;;;;;;54.05;15.07;;;;;;;;;;5077314;28;20032;-82
2022/01/12 05:30:51;;;;;;;260.42;25.70;;;;;;;;;;5057136;28;20053;-82
2022/01/12 05:33:18;;;;;;;372.75;31.98;;;;;;;;;;5078735;28;20090;-76
2022/01/12 05:35:44;;;;;;;251.57;28.67;;;;;;;;;;5061673;28;20143;-80
2022/01/12 05:38:12;;;;;;;183.80;23.63;;;;;;;;;;5084328;28;20119;-77
2022/01/12 05:40:38;;;;;;;173.38;22.98;;;;;;;;;;5063874;28;20032;-77
2022/01/12 05:43:05;;;;;;;75.13;16.10;;;;;;;;;;5073727;28;20074;-77
2022/01/12 05:45:33;;;;;;;305.40;29.45;;;;;;;;;;5054842;28;20048;-81
2022/01/12 05:50:26;;;;;;;158.93;21.08;;;;;;;;;;5088743;28;20060;-78
2022/01/12 05:52:52;;;;;;;96.20;18.05;;;;;;;;;;5061267;28;20101;-79
2022/01/12 05:55:18;;;;;;;80.10;17.83;;;;;;;;;;5061152;28;20036;-80
2022/01/12 05:57:45;;;;;;;198.13;24.98;;;;;;;;;;5077297;28;20036;-79
2022/01/12 06:00:12;;;;;;;192.45;26.67;;;;;;;;;;5087174;28;20046;-80
2022/01/12 06:02:38;;;;;;;241.10;26.88;;;;;;;;;;5090206;28;20047;-79
2022/01/12 06:05:05;;;;;;;116.28;19.98;;;;;;;;;;5060958;28;20503;-82
2022/01/12 06:07:31;;;;;;;381.10;35.47;;;;;;;;;;5067492;28;20492;-79
2022/01/12 06:09:57;;;;;;;66.90;19.25;;;;;;;;;;5073947;28;20055;-76
2022/01/12 06:12:23;;;;;;;102.38;18.80;;;;;;;;;;5079236;28;20044;-81
2022/01/12 06:14:49;;;;;;;349.50;32.60;;;;;;;;;;5061863;28;20449;-80
2022/01/12 06:17:15;;;;;;;341.90;31.27;;;;;;;;;;5079036;28;20044;-79
2022/01/12 06:19:41;;;;;;;299.42;29.10;;;;;;;;;;5081574;28;20104;-78
2022/01/12 06:22:07;;;;;;;345.30;35.63;;;;;;;;;;5063203;28;20395;-78
2022/01/12 06:24:33;;;;;;;147.48;23.90;;;;;;;;;;5095975;28;20084;-83
2022/01/12 06:27:00;;;;;;;265.13;32.05;;;;;;;;;;5076915;28;20048;-78
2022/01/12 06:29:49;;;;;;;328.92;35.60;;;;;;;;;;5053261;28;20063;-79
2022/01/12 06:32:15;;;;;;;377.05;34.08;;;;;;;;;;5110073;27;20045;-80
2022/01/12 06:34:42;;;;;;;132.55;20.48;;;;;;;;;;5057473;28;20075;-79
2022/01/12 06:37:08;;;;;;;321.23;32.75;;;;;;;;;;5069753;28;20048;-78
2022/01/12 06:39:34;;;;;;;266.33;31.85;;;;;;;;;;5095586;28;20062;-79
2022/01/12 06:42:00;;;;;;;244.15;31.10;;;;;;;;;;5074165;28;20498;-78
2022/01/12 06:44:26;;;;;;;242.40;32.88;;;;;;;;;;5079804;28;20140;-78
2022/01/12 06:46:54;;;;;;;303.17;34.15;;;;;;;;;;5091358;28;20048;-78
2022/01/12 06:49:20;;;;;;;121.38;25.58;;;;;;;;;;5066656;28;20044;-78
2022/01/12 06:51:47;;;;;;;188.43;27.92;;;;;;;;;;5081941;28;20445;-78
2022/01/12 06:54:13;;;;;;;179.18;27.02;;;;;;;;;;5103808;28;20578;-78
2022/01/12 06:56:39;;;;;;;141.13;24.00;;;;;;;;;;5081351;28;20044;-82
2022/01/12 06:59:06;;;;;;;157.80;26.13;;;;;;;;;;5124205;27;20043;-81
2022/01/12 07:01:33;;;;;;;148.20;24.92;;;;;;;;;;5073971;28;20043;-78
2022/01/12 07:03:59;;;;;;;108.40;20.95;;;;;;;;;;5062867;28;20052;-79
2022/01/12 07:06:25;;;;;;;125.30;22.05;;;;;;;;;;5074571;28;20323;-83
2022/01/12 07:08:51;;;;;;;150.95;25.70;;;;;;;;;;5101768;28;20048;-82
2022/01/12 07:11:17;;;;;;;145.88;26.25;;;;;;;;;;5075005;28;20074;-79
2022/01/12 07:13:43;;;;;;;212.35;28.70;;;;;;;;;;5077043;28;20210;-79
2022/01/12 07:16:09;;;;;;;201.90;27.65;;;;;;;;;;5062959;28;20056;-78
2022/01/12 07:18:35;;;;;;;197.82;26.45;;;;;;;;;;5093435;28;20058;-78
2022/01/12 07:21:01;;;;;;;266.33;31.27;;;;;;;;;;5067621;28;20047;-82
2022/01/12 07:23:28;;;;;;;300.23;33.88;;;;;;;;;;5078174;28;20049;-79
2022/01/12 07:25:54;;;;;;;207.38;27.90;;;;;;;;;;5058421;28;20556;-78
2022/01/12 07:28:21;;;;;;;237.48;30.98;;;;;;;;;;5082402;28;20153;-79
2022/01/12 07:30:47;;;;;;;164.23;26.77;;;;;;;;;;5081535;28;20047;-78
2022/01/12 07:33:13;;;;;;;245.25;62.13;;;;;;;;;;5075018;28;20048;-81
2022/01/12 07:35:40;;;;;;;122.10;22.38;;;;;;;;;;5067661;28;20043;-81
2022/01/12 07:38:06;;;;;;;69.20;14.95;;;;;;;;;;5073861;28;20119;-80
2022/01/12 07:40:33;;;;;;;194.48;24.40;;;;;;;;;;5057270;28;20371;-80
2022/01/12 07:43:00;;;;;;;102.72;18.63;;;;;;;;;;5089207;28;20041;-80
2022/01/12 07:45:26;;;;;;;169.88;18.92;;;;;;;;;;5070515;28;20058;-79
2022/01/12 07:47:52;;;;;;;172.98;24.20;;;;;;;;;;5089733;28;20039;-78
2022/01/12 07:50:18;;;;;;;277.60;65.13;;;;;;;;;;5075078;28;20501;-79
2022/01/12 07:52:44;;;;;;;172.95;22.42;;;;;;;;;;5095270;28;20072;-78
2022/01/12 07:55:10;;;;;;;204.88;27.48;;;;;;;;;;5089093;28;20054;-81
2022/01/12 07:57:36;;;;;;;235.18;26.25;;;;;;;;;;5087641;28;20119;-77
2022/01/12 08:00:04;;;;;;;225.15;27.15;;;;;;;;;;5086075;28;20490;-83
2022/01/12 08:02:30;;;;;;;228.60;28.85;;;;;;;;;;5085885;28;20056;-78
2022/01/12 08:04:56;;;;;;;159.10;23.60;;;;;;;;;;5047170;28;20446;-81
2022/01/12 08:07:22;;;;;;;181.75;24.52;;;;;;;;;;5062464;28;20052;-78
2022/01/12 08:09:48;;;;;;;97.22;17.30;;;;;;;;;;5066591;28;20055;-81
2022/01/12 08:12:14;;;;;;;262.98;60.92;;;;;;;;;;5085028;28;20407;-78
2022/01/12 08:14:40;;;;;;;107.28;16.20;;;;;;;;;;5057513;28;20482;-79
2022/01/12 08:17:07;;;;;;;90.45;17.40;;;;;;;;;;5061948;28;20044;-80
2022/01/12 08:19:37;;;;;;;144.50;19.55;;;;;;;;;;5059803;28;20048;-79
2022/01/12 08:22:04;;;;;;;237.98;74.28;;;;;;;;;;5063160;28;20041;-79
2022/01/12 08:24:30;;;;;;;277.83;77.13;;;;;;;;;;5080041;28;20487;-85
2022/01/12 08:26:56;;;;;;;265.13;62.50;;;;;;;;;;5049530;28;20160;-79
2022/01/12 08:29:23;;;;;;;129.55;17.77;;;;;;;;;;5091472;28;20112;-78
2022/01/12 08:31:50;;;;;;;61.45;13.18;;;;;;;;;;5077439;28;20048;-84
2022/01/12 08:34:16;;;;;;;294.57;65.80;;;;;;;;;;5072903;28;20087;-78
2022/01/12 08:36:42;;;;;;;352.27;68.90;;;;;;;;;;5060439;28;20044;-78
2022/01/12 08:39:09;;;;;;;100.07;15.60;;;;;;;;;;5072598;28;20035;-76
2022/01/12 08:41:36;;;;;;;61.90;11.23;;;;;;;;;;5089676;28;20044;-79
2022/01/12 08:44:03;;;;;;;320.03;70.47;;;;;;;;;;5061716;28;20122;-81
2022/01/12 08:46:29;;;;;;;355.00;71.73;;;;;;;;;;5079585;28;20369;-78
2022/01/12 08:48:56;;;;;;;99.45;11.90;;;;;;;;;;5092961;28;20055;-76
2022/01/12 08:51:22;;;;;;;60.78;7.45;;;;;;;;;;5074737;28;20403;-78
2022/01/12 08:53:48;;;;;;;90.95;13.10;;;;;;;;;;5075801;28;20093;-76
2022/01/12 08:56:14;;;;;;;483.67;142.57;;;;;;;;;;5102768;28;20127;-75
2022/01/12 08:58:41;;;;;;;116.85;19.50;;;;;;;;;;5064795;28;20037;-76
2022/01/12 09:01:09;;;;;;;131.95;19.90;;;;;;;;;;5088582;28;20410;-76
2022/01/12 09:03:35;;;;;;;232.82;60.67;;;;;;;;;;5081059;28;20134;-80
2022/01/12 09:06:03;;;;;;;142.65;20.92;;;;;;;;;;5069970;28;20095;-76
2022/01/12 09:08:29;;;;;;;103.63;17.23;;;;;;;;;;5072087;28;20052;-75
2022/01/12 09:10:55;;;;;;;300.13;66.27;;;;;;;;;;5088211;28;20594;-78
2022/01/12 09:13:21;;;;;;;259.07;63.07;;;;;;;;;;5081553;28;20416;-76
2022/01/12 09:15:48;;;;;;;83.18;13.60;;;;;;;;;;5086834;28;20540;-75
2022/01/12 09:18:15;;;;;;;210.05;55.47;;;;;;;;;;5086200;28;20050;-75
2022/01/12 09:20:41;;;;;;;100.13;13.00;;;;;;;;;;5072044;28;20045;-75
2022/01/12 09:23:07;;;;;;;91.13;14.70;;;;;;;;;;5078984;28;20119;-74
2022/01/12 09:25:35;;;;;;;355.57;66.60;;;;;;;;;;5092747;28;20043;-76
2022/01/12 09:28:02;;;;;;;122.93;16.73;;;;;;;;;;5086998;28;20175;-74
2022/01/12 09:30:29;;;;;;;93.22;17.13;;;;;;;;;;5072129;28;20048;-76
2022/01/12 09:32:56;;;;;;;108.65;17.50;;;;;;;;;;5093151;28;20070;-75
2022/01/12 09:35:22;;;;;;;181.02;21.92;;;;;;;;;;5077061;28;20066;-86
2022/01/12 09:37:48;;;;;;;197.57;21.52;;;;;;;;;;5077885;28;20480;-75
2022/01/12 09:40:14;;;;;;;181.68;20.55;;;;;;;;;;5091921;28;20041;-75
2022/01/12 09:42:43;;;;;;;139.07;16.25;;;;;;;;;;5112231;27;20094;-74
2022/01/12 09:45:14;;;;;;;150.40;17.48;;;;;;;;;;5082764;28;20514;-75
2022/01/12 09:47:42;;;;;;;211.45;21.15;;;;;;;;;;5085183;28;20126;-74
2022/01/12 09:50:09;;;;;;;207.63;19.17;;;;;;;;;;5091170;27;20040;-74
2022/01/12 09:52:35;;;;;;;174.07;18.27;;;;;;;;;;5077849;28;20086;-73
2022/01/12 09:55:01;;;;;;;232.23;22.10;;;;;;;;;;5076605;28;20048;-75
2022/01/12 09:57:27;;;;;;;276.02;21.42;;;;;;;;;;5080811;28;20058;-75
2022/01/12 09:59:53;;;;;;;225.32;20.20;;;;;;;;;;5073292;28;20478;-74
2022/01/12 10:02:21;;;;;;;228.55;22.98;;;;;;;;;;5085887;28;20052;-74
2022/01/12 10:04:47;;;;;;;221.13;20.60;;;;;;;;;;5088785;28;20510;-74
2022/01/12 10:07:14;;;;;;;246.80;21.90;;;;;;;;;;5086294;28;20044;-74
2022/01/12 10:09:46;;;;;;;196.98;20.38;;;;;;;;;;5117713;27;20044;-74
2022/01/12 10:12:15;;;;;;;206.98;20.45;;;;;;;;;;5067761;28;20058;-73
2022/01/12 10:14:46;;;;;;;234.80;22.10;;;;;;;;;;5096180;28;20440;-74
2022/01/12 10:17:14;;;;;;;209.60;19.73;;;;;;;;;;5066263;28;20048;-75
2022/01/12 10:19:40;;;;;;;203.98;18.15;;;;;;;;;;5077624;28;20087;-74
2022/01/12 10:22:08;;;;;;;214.93;18.83;;;;;;;;;;5061576;28;20417;-75
2022/01/12 10:24:39;;;;;;;203.63;19.33;;;;;;;;;;5090079;28;20047;-77
2022/01/12 10:27:16;;;;;;;168.90;18.75;;;;;;;;;;5074628;28;20052;-77
2022/01/12 10:29:43;;;;;;;121.28;15.77;;;;;;;;;;5081339;28;20059;-77
2022/01/12 10:32:09;;;;;;;161.55;18.95;;;;;;;;;;5058661;28;20550;-77
2022/01/12 10:34:37;;;;;;;152.13;18.70;;;;;;;;;;5068035;28;20079;-81
2022/01/12 10:37:06;;;;;;;163.32;19.70;;;;;;;;;;5076398;28;20044;-89
2022/01/12 10:39:32;;;;;;;199.82;19.77;;;;;;;;;;5099488;28;20106;-77
2022/01/12 10:41:59;;;;;;;137.82;17.70;;;;;;;;;;5084250;28;20147;-79
2022/01/12 10:44:27;;;;;;;159.50;18.75;;;;;;;;;;5084578;28;20051;-84
2022/01/12 10:47:12;;;;;;;180.27;21.30;;;;;;;;;;5086025;28;20403;-82
2022/01/12 10:49:40;;;;;;;171.15;18.60;;;;;;;;;;5062348;28;20047;-85
2022/01/12 10:52:08;;;;;;;143.52;19.35;;;;;;;;;;5061551;28;20260;-83
2022/01/12 10:54:48;;;;;;;176.95;18.30;;;;;;;;;;5067172;28;20510;-79
2022/01/12 10:57:18;;;;;;;135.00;18.17;;;;;;;;;;5083055;28;20131;-83
2022/01/12 10:59:48;;;;;;;174.48;18.35;;;;;;;;;;5066297;28;20036;-85
2022/01/12 11:02:14;;;;;;;120.35;15.05;;;;;;;;;;5067563;28;20097;-87
2022/01/12 11:04:42;;;;;;;172.40;19.52;;;;;;;;;;5085552;28;20068;-87
2022/01/12 11:07:08;;;;;;;146.52;17.15;;;;;;;;;;5053500;28;20105;-88
2022/01/12 11:09:34;;;;;;;147.77;18.58;;;;;;;;;;5070578;28;20044;-87
2022/01/12 11:12:01;;;;;;;137.63;19.50;;;;;;;;;;5067258;28;20455;-85
2022/01/12 11:14:28;;;;;;;132.13;18.55;;;;;;;;;;5050322;28;20044;-88
2022/01/12 11:16:54;;;;;;;81.95;15.25;;;;;;;;;;5088499;28;20047;-83
2022/01/12 11:19:20;;;;;;;98.13;18.63;;;;;;;;;;5055502;28;20040;-87
2022/01/12 11:21:57;;;;;;;101.40;17.98;;;;;;;;;;5072402;28;20093;-88
2022/01/12 11:24:25;;;;;;;92.47;15.95;;;;;;;;;;5071413;28;20044;-92
2022/01/12 11:26:52;;;;;;;86.20;17.50;;;;;;;;;;5084976;28;20048;-86
2022/01/12 11:29:28;;;;;;;96.82;17.25;;;;;;;;;;5073367;28;20039;-85
2022/01/12 11:32:04;;;;;;;86.25;16.52;;;;;;;;;;5089999;28;20073;-83
2022/01/12 11:34:31;;;;;;;91.78;18.67;;;;;;;;;;5091245;28;20453;-82
2022/01/12 11:36:57;;;;;;;89.45;18.45;;;;;;;;;;5074102;28;20047;-83
2022/01/12 11:39:23;;;;;;;84.60;17.80;;;;;;;;;;5072097;28;20044;-84
2022/01/12 11:41:49;;;;;;;74.90;20.98;;;;;;;;;;5091235;28;20052;-83
2022/01/12 11:44:17;;;;;;;108.13;21.48;;;;;;;;;;5075970;28;20055;-83
2022/01/12 11:46:46;;;;;;;72.38;19.13;;;;;;;;;;5075574;28;20097;-84
2022/01/12 11:49:13;;;;;;;64.60;18.13;;;;;;;;;;5094919;28;20039;-88
2022/01/12 11:51:40;;;;;;;87.28;19.58;;;;;;;;;;5091855;28;20509;-90
2022/01/12 11:54:14;;;;;;;88.57;19.05;;;;;;;;;;5094326;28;20058;-87
2022/01/12 11:57:13;;;;;;;87.70;20.63;;;;;;;;;;5078601;28;20510;-91
2022/01/12 11:59:50;;;;;;;111.80;23.63;;;;;;;;;;5064513;28;20052;-90
2022/01/12 12:02:17;;;;;;;90.63;22.08;;;;;;;;;;5087203;28;20181;-84
2022/01/12 12:05:00;;;;;;;87.82;21.08;;;;;;;;;;5057327;28;20044;-89
2022/01/12 12:07:27;;;;;;;75.25;22.10;;;;;;;;;;5117732;27;20200;-89
2022/01/12 12:09:57;;;;;;;83.38;22.05;;;;;;;;;;5074268;28;20128;-90
2022/01/12 12:12:23;;;;;;;94.47;22.48;;;;;;;;;;5095988;28;20049;-79
2022/01/12 12:14:50;;;;;;;91.57;23.17;;;;;;;;;;5060926;28;20397;-83
2022/01/12 12:17:17;;;;;;;117.53;26.00;;;;;;;;;;5094198;28;20104;-82
2022/01/12 12:19:43;;;;;;;118.15;24.02;;;;;;;;;;5088002;28;20066;-86
2022/01/12 12:22:14;;;;;;;101.05;24.35;;;;;;;;;;5067281;28;20289;-83
2022/01/12 12:24:41;;;;;;;115.50;24.10;;;;;;;;;;5086664;28;20048;-87
2022/01/12 12:27:09;;;;;;;117.50;26.33;;;;;;;;;;5067677;28;20982;-92
2022/01/12 12:29:35;;;;;;;137.35;25.38;;;;;;;;;;5076037;28;21959;-84
2022/01/12 12:32:02;;;;;;;127.63;25.13;;;;;;;;;;5063108;28;20126;-93
2022/01/12 12:34:30;;;;;;;101.25;23.27;;;;;;;;;;5095131;28;20032;-92
2022/01/12 12:37:00;;;;;;;109.95;24.67;;;;;;;;;;5091506;28;20036;-91
2022/01/12 12:39:29;;;;;;;88.40;23.42;;;;;;;;;;5088314;28;20103;-81
2022/01/12 12:41:55;;;;;;;116.28;25.90;;;;;;;;;;5100193;28;20044;-90
2022/01/12 12:44:21;;;;;;;93.93;23.52;;;;;;;;;;5060374;28;20043;-85
2022/01/12 12:46:47;;;;;;;99.22;25.23;;;;;;;;;;5073150;28;20087;-83
2022/01/12 12:49:14;;;;;;;80.88;22.85;;;;;;;;;;5053890;28;20482;-85
2022/01/12 12:51:40;;;;;;;114.97;24.45;;;;;;;;;;5056096;28;20048;-87
2022/01/12 12:54:06;;;;;;;84.50;23.70;;;;;;;;;;5073165;28;20086;-85
2022/01/12 12:56:40;;;;;;;84.07;24.17;;;;;;;;;;5068272;28;20039;-89
2022/01/12 12:59:08;;;;;;;98.20;25.17;;;;;;;;;;5086082;28;20380;-86
2022/01/12 13:01:34;;;;;;;100.68;23.75;;;;;;;;;;5102329;27;20072;-85
2022/01/12 13:04:02;;;;;;;106.18;25.05;;;;;;;;;;5103466;27;20103;-85
2022/01/12 13:06:30;;;;;;;83.40;22.17;;;;;;;;;;5071634;28;20060;-85
2022/01/12 13:09:16;;;;;;;97.20;22.42;;;;;;;;;;5070345;28;20055;-80
2022/01/12 13:11:44;;;;;;;73.80;19.65;;;;;;;;;;5085586;28;20079;-84
2022/01/12 13:14:14;;;;;;;77.13;20.95;;;;;;;;;;5068047;28;20068;-85
2022/01/12 13:16:44;;;;;;;72.35;19.90;;;;;;;;;;5092580;28;20088;-79
2022/01/12 13:19:22;;;;;;;66.78;19.38;;;;;;;;;;5085136;28;20401;-79
2022/01/12 13:21:48;;;;;;;69.65;19.95;;;;;;;;;;5068858;28;20113;-83
2022/01/12 13:24:15;;;;;;;61.92;19.42;;;;;;;;;;5067587;28;20036;-83
2022/01/12 13:26:41;;;;;;;73.93;19.58;;;;;;;;;;5095297;28;20059;-82
2022/01/12 13:29:10;;;;;;;82.43;21.38;;;;;;;;;;5084716;28;20061;-84
2022/01/12 13:31:36;;;;;;;79.95;22.20;;;;;;;;;;5068198;28;20083;-83
2022/01/12 13:34:03;;;;;;;67.95;20.50;;;;;;;;;;5081776;28;20645;-82
2022/01/12 13:36:31;;;;;;;65.85;19.65;;;;;;;;;;5063101;28;20085;-83
2022/01/12 13:38:58;;;;;;;56.03;16.63;;;;;;;;;;5068442;28;20052;-85
2022/01/12 13:41:27;;;;;;;68.72;18.55;;;;;;;;;;5072943;28;20359;-83
2022/01/12 13:43:58;;;;;;;64.85;19.95;;;;;;;;;;5065578;28;20054;-84
2022/01/12 13:46:37;;;;;;;72.05;20.80;;;;;;;;;;5069048;28;20057;-83
2022/01/12 13:49:21;;;;;;;65.32;19.67;;;;;;;;;;5070570;28;20138;-82
2022/01/12 13:51:58;;;;;;;73.45;20.38;;;;;;;;;;5067657;28;20121;-83
2022/01/12 13:54:28;;;;;;;73.53;20.50;;;;;;;;;;5066601;28;20051;-84
2022/01/12 13:56:54;;;;;;;65.32;18.60;;;;;;;;;;5071686;28;20031;-84
2022/01/12 13:59:21;;;;;;;57.97;17.98;;;;;;;;;;5053734;28;20169;-84
2022/01/12 14:01:48;;;;;;;84.90;21.23;;;;;;;;;;5069641;28;20036;-82
2022/01/12 14:04:41;;;;;;;66.80;19.88;;;;;;;;;;5081471;28;20090;-80
2022/01/12 14:07:10;;;;;;;78.03;21.30;;;;;;;;;;5111551;27;20475;-85
2022/01/12 14:09:40;;;;;;;66.80;19.58;;;;;;;;;;5110676;27;20520;-89
2022/01/12 14:12:11;;;;;;;74.35;19.95;;;;;;;;;;5100684;28;20379;-87
2022/01/12 14:14:54;;;;;;;66.72;21.77;;;;;;;;;;5076776;28;20032;-85
2022/01/12 14:17:29;;;;;;;67.10;19.15;;;;;;;;;;5072298;28;20052;-85
2022/01/12 14:19:55;;;;;;;70.20;19.75;;;;;;;;;;5072440;28;20044;-83
2022/01/12 14:22:22;;;;;;;78.03;22.60;;;;;;;;;;5069516;28;21043;-84
2022/01/12 14:24:58;;;;;;;71.53;20.45;;;;;;;;;;5076278;28;20047;-83
2022/01/12 14:27:25;;;;;;;64.20;20.10;;;;;;;;;;5087841;28;20043;-83
2022/01/12 14:29:51;;;;;;;71.93;20.60;;;;;;;;;;5071884;28;20039;-83
2022/01/12 14:32:17;;;;;;;70.95;19.30;;;;;;;;;;5087691;28;20173;-85
2022/01/12 14:34:43;;;;;;;75.22;20.45;;;;;;;;;;5068760;28;20264;-89
2022/01/12 14:37:09;;;;;;;76.30;21.67;;;;;;;;;;5088683;28;20040;-84
2022/01/12 14:39:36;;;;;;;73.80;20.00;;;;;;;;;;5072217;28;20079;-83
2022/01/12 14:42:03;;;;;;;78.88;21.33;;;;;;;;;;5070052;28;20364;-84
2022/01/12 14:44:37;;;;;;;88.32;20.90;;;;;;;;;;5088478;28;20522;-84
2022/01/12 14:47:03;;;;;;;;;;;;;;;;;;5090561;28;20082;-86
2022/01/12 14:49:29;;;;;;;70.88;20.02;;;;;;;;;;5071981;28;19927;-84
2022/01/12 14:51:55;;;;;;;79.30;22.33;;;;;;;;;;5073582;28;20040;-85
2022/01/12 14:54:21;;;;;;;95.93;23.83;;;;;;;;;;5091584;28;20441;-84
2022/01/12 14:56:47;;;;;;;81.70;22.60;;;;;;;;;;5074990;28;20131;-86
2022/01/12 14:59:13;;;;;;;77.75;21.67;;;;;;;;;;5076897;28;20040;-84
2022/01/12 15:01:41;;;;;;;91.40;22.42;;;;;;;;;;5076516;28;20074;-84
2022/01/12 15:04:07;;;;;;;85.47;21.30;;;;;;;;;;5094761;28;20044;-83
2022/01/12 15:06:33;;;;;;;68.32;20.70;;;;;;;;;;5059125;28;20078;-84
2022/01/12 15:08:59;;;;;;;76.13;22.63;;;;;;;;;;5071324;28;20131;-84
2022/01/12 15:11:25;;;;;;;82.30;23.67;;;;;;;;;;5075034;28;20740;-84
2022/01/12 15:14:00;;;;;;;95.18;23.58;;;;;;;;;;5058953;28;20101;-83
2022/01/12 15:16:26;;;;;;;86.25;21.98;;;;;;;;;;5077149;28;20056;-84
2022/01/12 15:18:52;;;;;;;88.90;21.35;;;;;;;;;;5074958;28;20075;-83
2022/01/12 15:21:18;;;;;;;73.05;20.15;;;;;;;;;;5075155;28;20044;-84
2022/01/12 15:23:45;;;;;;;76.70;20.42;;;;;;;;;;5090440;28;20127;-85
2022/01/12 15:26:11;;;;;;;70.70;20.08;;;;;;;;;;5058984;28;20043;-85